Eems Trader — V2DE3 — position and weather

sailwx.info

Track history (hours):
 
Tides and Currents Weather Stations Pressure Air Temp Water Temp Dewpoint Dewpoint Depression Visibility Wind Speed Wind Dir Waves Ship Positions

Eems Trader

Last reported at 2016-Aug-29 04:33 UTC. Time now 2016-Aug-29 05:22 UTC.
Position N 36°01' W 005°13'.

Length 89 m; draft 4.2 m.

Type: Cargo ship. MMSI: 305182000.

Date/timePositionNaut miles runAvg speedWind from/ knotsBaromVisibWave heightAir tempDewpointWater temp
2016-Aug-29 04:33N 36°01' W 005°13'9 9.1
2016-Aug-29 03:33N 35°59' W 005°24'10 9.6
2016-Aug-29 02:32N 35°55' W 005°35'1010.2
2016-Aug-29 01:33N 35°54' W 005°48'209 7.7
2016-Aug-27 22:33N 37°22' W 009°44'9 8.6
2016-Aug-27 21:29N 37°31' W 009°46'8 8.6
2016-Aug-27 20:33N 37°39' W 009°49'9 8.7
2016-Aug-27 19:33N 37°47' W 009°51'9 9.0
2016-Aug-27 18:33N 37°56' W 009°54'13 8.8
2016-Aug-27 17:05N 38°08' W 009°57'5 9.0
2016-Aug-27 16:29N 38°14' W 009°59'9 9.5
2016-Aug-27 15:33N 38°22' W 010°02'9 9.3
2016-Aug-27 14:33N 38°32' W 010°04'9 8.7
2016-Aug-27 13:33N 38°40' W 010°07'8 7.8
2016-Aug-27 12:33N 38°48' W 010°08'8 8.0
2016-Aug-27 11:33N 38°56' W 010°06'9 8.7
2016-Aug-27 10:33N 39°04' W 010°02'9 8.4
2016-Aug-27 09:33N 39°12' W 009°59'  
2016-Aug-24 00:05N 41°41' W 008°50'0 0.0
2016-Aug-23 23:17N 41°41' W 008°50'0 0.0
2016-Aug-23 22:29N 41°41' W 008°50'0 0.0
2016-Aug-23 20:29N 41°41' W 008°50'  
Track history (hours):
 
Tides and Currents Weather Stations Pressure Air Temp Water Temp Dewpoint Dewpoint Depression Visibility Wind Speed Wind Dir Waves Ship Positions

Eems Trader

Last reported at 2016-Aug-29 04:33 UTC. Time now 2016-Aug-29 05:22 UTC.
Position N 36°01' W 005°13'.

Length 89 m; draft 4.2 m.

Type: Cargo ship. MMSI: 305182000.

Date/timePositionNaut miles runAvg speedWind from/ knotsBaromVisibWave heightAir tempDewpointWater temp
2016-Aug-29 04:33N 36°01' W 005°13'9 9.1
2016-Aug-29 03:33N 35°59' W 005°24'10 9.6
2016-Aug-29 02:32N 35°55' W 005°35'1010.2
2016-Aug-29 01:33N 35°54' W 005°48'209 7.7
2016-Aug-27 22:33N 37°22' W 009°44'9 8.6
2016-Aug-27 21:29N 37°31' W 009°46'8 8.6
2016-Aug-27 20:33N 37°39' W 009°49'9 8.7
2016-Aug-27 19:33N 37°47' W 009°51'9 9.0
2016-Aug-27 18:33N 37°56' W 009°54'13 8.8
2016-Aug-27 17:05N 38°08' W 009°57'5 9.0
2016-Aug-27 16:29N 38°14' W 009°59'9 9.5
2016-Aug-27 15:33N 38°22' W 010°02'9 9.3
2016-Aug-27 14:33N 38°32' W 010°04'9 8.7
2016-Aug-27 13:33N 38°40' W 010°07'8 7.8
2016-Aug-27 12:33N 38°48' W 010°08'8 8.0
2016-Aug-27 11:33N 38°56' W 010°06'9 8.7
2016-Aug-27 10:33N 39°04' W 010°02'9 8.4
2016-Aug-27 09:33N 39°12' W 009°59'  
2016-Aug-24 00:05N 41°41' W 008°50'0 0.0
2016-Aug-23 23:17N 41°41' W 008°50'0 0.0
2016-Aug-23 22:29N 41°41' W 008°50'0 0.0
2016-Aug-23 20:29N 41°41' W 008°50'  

Dump ship's entire track history